Time;durP1;ratioP1;P1;durP2;ratioP2;P2;SDS_P1;SDS_P2;PMS_P1;PMS_P2;Temp;Humidity;BMP_temperature;BMP_pressure;BME280_temperature;BME280_humidity;BME280_pressure;Samples;Min_cycle;Max_cycle;Signal;HPM_P1;HPM_P2
2023/08/01 08:59:20;;;;;;;10.27;4.68;;;;;;;16.04;100.00;99838.44;5105335;27;1219972;-73
2023/08/01 09:01:45;;;;;;;8.82;4.00;;;;;;;16.01;100.00;99833.56;5147102;27;20077;-73
2023/08/01 09:04:11;;;;;;;11.30;3.97;;;;;;;15.99;100.00;99829.47;5151844;27;20023;-76
2023/08/01 09:06:54;;;;;;;11.23;4.30;;;;;;;16.02;100.00;99834.34;5151358;27;20023;-75
2023/08/01 09:09:19;;;;;;;8.38;3.03;;;;;;;15.98;100.00;99834.13;5150221;27;20031;-80
2023/08/01 09:11:47;;;;;;;7.15;2.85;;;;;;;15.94;100.00;99838.53;5143417;27;20034;-74
2023/08/01 09:14:13;;;;;;;6.50;3.20;;;;;;;15.92;100.00;99840.72;5133047;27;20068;-75
2023/08/01 09:16:40;;;;;;;6.88;3.22;;;;;;;15.90;100.00;99832.84;5148459;27;20039;-73
2023/08/01 09:19:06;;;;;;;7.05;3.10;;;;;;;15.98;100.00;99838.78;5148900;27;20034;-72
2023/08/01 09:21:37;;;;;;;7.72;3.47;;;;;;;15.97;100.00;99842.59;5135928;27;20031;-74
2023/08/01 09:24:27;;;;;;;7.82;3.25;;;;;;;15.92;100.00;99844.25;5137696;27;20373;-74
2023/08/01 09:26:52;;;;;;;8.15;3.75;;;;;;;15.92;100.00;99857.09;5146956;27;20035;-75
2023/08/01 09:29:19;;;;;;;10.60;3.60;;;;;;;15.86;100.00;99852.78;5150972;27;20039;-73
2023/08/01 09:31:45;;;;;;;10.85;4.03;;;;;;;15.86;100.00;99864.50;5149068;27;20027;-74
2023/08/01 09:34:21;;;;;;;8.23;3.85;;;;;;;15.84;100.00;99865.91;5142196;27;20056;-72
2023/08/01 09:36:47;;;;;;;7.40;3.33;;;;;;;15.76;100.00;99850.91;5151374;27;20035;-73
2023/08/01 09:39:20;;;;;;;5.43;2.88;;;;;;;15.60;100.00;99859.19;5151090;27;20023;-73
2023/08/01 09:41:56;;;;;;;7.60;2.60;;;;;;;15.45;100.00;99848.41;5151005;27;20015;-73
2023/08/01 09:44:21;;;;;;;5.55;2.47;;;;;;;15.35;100.00;99859.34;5150861;27;20134;-72
2023/08/01 09:47:01;;;;;;;7.50;2.25;;;;;;;15.32;100.00;99868.91;5150499;27;20501;-72
2023/08/01 09:49:28;;;;;;;6.88;2.53;;;;;;;15.28;100.00;99870.56;5148800;27;20478;-72
2023/08/01 09:51:54;;;;;;;7.22;2.63;;;;;;;15.29;100.00;99860.47;5132411;27;20031;-73
2023/08/01 09:54:20;;;;;;;9.68;2.70;;;;;;;15.32;100.00;99865.38;5132142;27;20027;-72
2023/08/01 09:56:48;;;;;;;7.97;3.03;;;;;;;15.41;100.00;99859.06;5150808;27;20091;-72
2023/08/01 09:59:26;;;;;;;6.30;2.63;;;;;;;15.45;100.00;99862.03;5150953;27;20101;-72
2023/08/01 10:01:54;;;;;;;8.15;3.13;;;;;;;15.54;100.00;99867.69;5147356;27;20485;-72
2023/08/01 10:04:46;;;;;;;9.40;3.38;;;;;;;15.81;100.00;99866.47;5149038;27;20062;-73
2023/08/01 10:07:13;;;;;;;11.18;3.85;;;;;;;15.88;100.00;99866.94;5146648;27;20129;-73
2023/08/01 10:09:40;;;;;;;9.95;3.67;;;;;;;16.06;100.00;99862.72;5142425;27;20030;-73
2023/08/01 10:12:06;;;;;;;10.23;3.90;;;;;;;16.27;100.00;99860.63;5136948;27;20049;-73
2023/08/01 10:14:35;;;;;;;12.35;3.75;;;;;;;16.39;100.00;99871.16;5135545;27;20532;-73
2023/08/01 10:17:02;;;;;;;11.88;3.67;;;;;;;16.57;100.00;99873.16;5136587;27;20027;-73
2023/08/01 10:19:30;;;;;;;11.35;4.32;;;;;;;16.79;100.00;99863.66;5118028;27;20095;-72
2023/08/01 10:21:56;;;;;;;10.00;3.75;;;;;;;16.87;100.00;99864.97;5135361;27;20038;-74
2023/08/01 10:24:24;;;;;;;11.00;3.80;;;;;;;16.91;100.00;99871.44;5124482;27;20355;-73
2023/08/01 10:26:49;;;;;;;10.98;3.90;;;;;;;16.91;100.00;99876.91;5122562;27;20046;-72
2023/08/01 10:29:14;;;;;;;12.60;3.95;;;;;;;16.87;100.00;99873.97;5136453;27;20055;-73
2023/08/01 10:31:50;;;;;;;11.30;4.05;;;;;;;16.90;100.00;99876.09;5130469;27;20042;-72
2023/08/01 10:34:16;;;;;;;13.70;4.28;;;;;;;16.86;100.00;99871.47;5136132;27;20027;-72
2023/08/01 10:36:56;;;;;;;7.65;2.80;;;;;;;16.83;100.00;99881.91;5127057;27;20027;-73
2023/08/01 10:39:23;;;;;;;9.05;3.22;;;;;;;16.78;100.00;99873.75;5129232;27;20462;-73
2023/08/01 10:41:57;;;;;;;9.48;3.63;;;;;;;16.77;100.00;99877.59;5115118;28;20718;-73
2023/08/01 10:44:23;;;;;;;9.35;3.33;;;;;;;16.76;100.00;99875.97;5114807;28;20382;-75
2023/08/01 10:46:56;;;;;;;9.40;3.38;;;;;;;16.77;100.00;99888.53;5115316;28;20034;-72
2023/08/01 10:49:34;;;;;;;13.05;4.15;;;;;;;16.75;100.00;99879.78;5127620;27;20045;-75
2023/08/01 10:52:00;;;;;;;14.43;4.10;;;;;;;16.73;100.00;99884.75;5115594;27;20355;-78
2023/08/01 10:54:25;;;;;;;12.95;3.63;;;;;;;16.77;100.00;99885.78;5132145;27;20031;-77
2023/08/01 10:56:53;;;;;;;13.48;3.80;;;;;;;16.80;100.00;99887.13;5129588;27;20028;-74
2023/08/01 10:59:20;;;;;;;11.60;3.55;;;;;;;16.81;100.00;99900.47;5112409;27;19923;-82
2023/08/01 11:01:49;;;;;;;15.98;3.70;;;;;;;16.84;100.00;99899.09;5131649;27;20043;-75
2023/08/01 11:04:18;;;;;;;11.80;3.70;;;;;;;16.87;100.00;99897.75;5156445;27;20461;-74
2023/08/01 11:06:45;;;;;;;12.40;3.72;;;;;;;16.90;100.00;99905.34;5156082;27;20030;-78
2023/08/01 11:09:15;;;;;;;11.15;3.80;;;;;;;16.87;100.00;99912.22;5151917;27;20156;-78
2023/08/01 11:11:41;;;;;;;9.43;3.38;;;;;;;16.76;100.00;99913.41;5153463;27;20373;-74
2023/08/01 11:14:06;;;;;;;8.57;3.38;;;;;;;16.70;100.00;99909.06;5140587;27;20110;-75
2023/08/01 11:16:32;;;;;;;11.55;3.55;;;;;;;16.58;100.00;99904.03;5137576;27;20075;-77
2023/08/01 11:18:57;;;;;;;9.82;3.28;;;;;;;16.52;100.00;99914.19;5155897;27;20029;-79
2023/08/01 11:21:27;;;;;;;10.27;3.72;;;;;;;16.51;100.00;99912.53;5151807;27;20030;-75
2023/08/01 11:23:52;;;;;;;9.95;3.17;;;;;;;16.46;100.00;99902.47;5155877;27;20450;-75
2023/08/01 11:26:18;;;;;;;9.90;3.03;;;;;;;16.48;100.00;99899.47;5155981;27;20030;-74
2023/08/01 11:28:44;;;;;;;11.50;3.40;;;;;;;16.51;100.00;99915.28;5155585;27;20426;-74
2023/08/01 11:31:12;;;;;;;10.52;3.40;;;;;;;16.54;100.00;99917.44;5154708;27;20105;-72
2023/08/01 11:33:38;;;;;;;10.63;3.20;;;;;;;16.56;100.00;99920.69;5141228;27;20418;-77
2023/08/01 11:36:05;;;;;;;9.02;3.20;;;;;;;16.58;100.00;99923.94;5135215;27;20027;-73
2023/08/01 11:38:34;;;;;;;17.35;3.88;;;;;;;16.61;100.00;99934.28;5138074;27;20393;-79
2023/08/01 11:41:01;;;;;;;12.68;3.67;;;;;;;16.69;100.00;99929.31;5142727;27;20114;-76
2023/08/01 11:43:38;;;;;;;9.93;3.15;;;;;;;16.81;100.00;99933.28;5155362;27;20039;-73
2023/08/01 11:46:03;;;;;;;9.00;3.53;;;;;;;16.90;100.00;99930.75;5155501;27;20029;-73
2023/08/01 11:48:28;;;;;;;12.23;3.50;;;;;;;17.00;100.00;99941.59;5154364;27;20105;-75
2023/08/01 11:50:58;;;;;;;11.77;3.28;;;;;;;17.16;100.00;99938.66;5155385;27;20114;-71
2023/08/01 11:53:23;;;;;;;8.98;2.67;;;;;;;17.30;100.00;99934.13;5155284;27;20031;-73
2023/08/01 11:55:52;;;;;;;11.68;3.55;;;;;;;17.58;100.00;99938.97;5155638;27;20033;-82
2023/08/01 11:58:31;;;;;;;10.40;3.08;;;;;;;17.76;100.00;99935.44;5140551;27;20088;-72
2023/08/01 12:01:03;;;;;;;12.00;3.17;;;;;;;17.95;100.00;99942.84;5140587;27;20062;-73
2023/08/01 12:03:29;;;;;;;7.68;3.05;;;;;;;18.20;100.00;99938.91;5152182;27;20037;-72
2023/08/01 12:06:07;;;;;;;10.40;3.20;;;;;;;18.29;100.00;99942.59;5150385;27;20031;-73
2023/08/01 12:08:34;;;;;;;7.95;2.13;;;;;;;18.23;100.00;99950.06;5153177;27;20069;-73
2023/08/01 12:10:59;;;;;;;7.50;2.72;;;;;;;18.21;100.00;99935.06;5146639;27;20027;-73
2023/08/01 12:13:26;;;;;;;6.43;2.15;;;;;;;18.14;100.00;99960.09;5134071;27;20019;-73
2023/08/01 12:15:53;;;;;;;9.82;2.67;;;;;;;18.22;100.00;99948.47;5139284;27;20492;-74
2023/08/01 12:18:29;;;;;;;9.15;2.35;;;;;;;18.29;100.00;99948.06;5154535;27;20062;-73
2023/08/01 12:20:55;;;;;;;6.53;2.47;;;;;;;18.45;100.00;99945.91;5154791;27;20034;-73
2023/08/01 12:23:21;;;;;;;8.45;2.30;;;;;;;18.64;100.00;99945.03;5154664;27;20026;-73
2023/08/01 12:25:47;;;;;;;10.48;2.50;;;;;;;18.92;100.00;99941.25;5152804;27;20491;-74
2023/08/01 12:28:16;;;;;;;5.35;2.13;;;;;;;19.09;95.24;99959.03;5136092;27;20046;-72
2023/08/01 12:30:43;;;;;;;8.15;2.33;;;;;;;19.17;92.88;99950.09;5136764;27;20053;-76
2023/08/01 12:33:08;;;;;;;7.43;2.10;;;;;;;19.10;81.69;99957.94;5134597;27;20118;-79
2023/08/01 12:35:34;;;;;;;6.50;2.10;;;;;;;19.17;87.50;99950.09;5134271;27;20055;-77
2023/08/01 12:37:59;;;;;;;9.13;2.50;;;;;;;19.28;91.50;99957.00;5134030;27;20020;-75
2023/08/01 12:40:25;;;;;;;4.85;2.10;;;;;;;19.45;90.69;99955.56;5133890;27;20023;-78
2023/08/01 12:42:50;;;;;;;4.57;2.10;;;;;;;19.60;96.27;99955.25;5135063;27;20388;-78
2023/08/01 12:45:16;;;;;;;6.55;2.20;;;;;;;19.67;86.68;99949.31;5154838;27;20453;-78
2023/08/01 12:47:41;;;;;;;8.45;2.53;;;;;;;19.61;90.79;99958.78;5153513;27;20461;-81
2023/08/01 12:50:07;;;;;;;6.43;2.30;;;;;;;19.41;83.80;99960.03;5154540;27;20075;-76
2023/08/01 12:52:32;;;;;;;7.35;2.42;;;;;;;19.30;100.00;99946.53;5153983;27;20027;-78
2023/08/01 12:54:58;;;;;;;9.32;2.47;;;;;;;19.39;95.05;99957.59;5154153;27;20043;-81
2023/08/01 12:57:23;;;;;;;7.25;2.65;;;;;;;19.53;100.00;99946.59;5135387;27;20023;-77
2023/08/01 12:59:48;;;;;;;7.65;2.78;;;;;;;19.70;100.00;99953.38;5130846;27;20538;-81
2023/08/01 13:02:14;;;;;;;7.05;2.85;;;;;;;19.61;100.00;99948.66;5131928;27;20050;-80
2023/08/01 13:04:39;;;;;;;8.60;2.72;;;;;;;19.53;98.61;99954.84;5135186;27;20617;-82
2023/08/01 13:07:05;;;;;;;8.70;2.80;;;;;;;19.28;100.00;99951.53;5133769;27;20031;-81
2023/08/01 13:09:30;;;;;;;8.73;2.80;;;;;;;19.11;100.00;99957.63;5154407;27;20114;-76
2023/08/01 13:11:56;;;;;;;9.20;3.05;;;;;;;19.00;100.00;99963.59;5154299;27;20030;-77
2023/08/01 13:14:21;;;;;;;8.80;2.80;;;;;;;19.07;100.00;99953.06;5153470;27;20035;-77
2023/08/01 13:16:47;;;;;;;9.40;2.70;;;;;;;19.34;100.00;99965.13;5152564;27;20023;-80
2023/08/01 13:19:12;;;;;;;7.38;2.40;;;;;;;19.57;84.37;99972.31;5142562;27;20122;-75
2023/08/01 13:21:38;;;;;;;7.47;2.22;;;;;;;19.74;90.97;99971.69;5134474;27;20079;-77
2023/08/01 13:24:04;;;;;;;8.73;2.67;;;;;;;19.80;79.93;99978.72;5133702;27;20162;-74
2023/08/01 13:26:31;;;;;;;7.35;2.35;;;;;;;19.88;80.69;99968.94;5153970;27;20083;-74
2023/08/01 13:28:56;;;;;;;8.05;2.78;;;;;;;19.95;83.32;99955.59;5154051;27;20602;-74
2023/08/01 13:31:22;;;;;;;6.40;2.20;;;;;;;20.10;78.86;99962.66;5154150;27;20023;-74
2023/08/01 13:33:47;;;;;;;7.55;2.17;;;;;;;20.27;81.62;99961.97;5142375;27;20454;-74
2023/08/01 13:36:13;;;;;;;6.97;2.53;;;;;;;20.27;75.64;99966.69;5148999;27;20389;-74
2023/08/01 13:38:38;;;;;;;7.28;2.22;;;;;;;20.24;76.19;99975.53;5132828;28;20042;-74
2023/08/01 13:41:04;;;;;;;6.43;2.10;;;;;;;20.23;82.54;99974.75;5141220;27;20027;-74
2023/08/01 13:43:29;;;;;;;6.88;2.10;;;;;;;20.16;78.35;99982.59;5135023;27;20034;-74
2023/08/01 13:45:54;;;;;;;5.70;2.13;;;;;;;;;;5157133;27;20023;-74
2023/08/01 13:48:20;;;;;;;10.25;2.72;;;;;;;20.19;86.26;99974.53;5157937;27;20035;-74
2023/08/01 13:50:45;;;;;;;7.55;2.30;;;;;;;20.36;72.84;99984.03;5157507;27;20465;-74
2023/08/01 13:53:13;;;;;;;9.30;2.58;;;;;;;20.44;71.49;99968.72;5157656;27;20029;-75
2023/08/01 13:55:39;;;;;;;6.38;2.13;;;;;;;20.42;72.32;99973.72;5138975;27;20022;-75
2023/08/01 13:58:04;;;;;;;5.00;1.98;;;;;;;20.48;70.75;99980.72;5156986;27;20061;-75
2023/08/01 14:00:29;;;;;;;5.90;1.95;;;;;;;20.57;66.85;99973.34;5151567;27;20069;-75
2023/08/01 14:02:56;;;;;;;16.75;3.15;;;;;;;20.75;68.56;99968.00;5149294;27;20042;-79
2023/08/01 14:05:24;;;;;;;5.28;1.55;;;;;;;20.76;63.80;99983.34;5139115;27;20457;-81
2023/08/01 14:07:50;;;;;;;6.10;1.73;;;;;;;20.53;59.76;99978.66;5157490;27;20477;-73
2023/08/01 14:10:15;;;;;;;6.25;1.73;;;;;;;20.54;60.71;99990.47;5157596;27;20066;-76
2023/08/01 14:12:41;;;;;;;6.30;1.65;;;;;;;20.53;59.88;99989.66;5157322;27;20122;-77
2023/08/01 14:15:07;;;;;;;3.55;1.55;;;;;;;20.27;61.26;99986.72;5156732;27;20465;-79
2023/08/01 14:17:32;;;;;;;5.32;1.80;;;;;;;20.16;60.04;99999.06;5156974;27;20054;-79
2023/08/01 14:19:58;;;;;;;9.77;2.25;;;;;;;20.39;62.32;99986.16;5138736;27;20095;-76
2023/08/01 14:22:24;;;;;;;5.00;1.90;;;;;;;20.65;59.51;99974.53;5138699;27;20027;-80
2023/08/01 14:24:49;;;;;;;4.55;1.48;;;;;;;20.81;57.67;99985.97;5157265;27;20377;-79
2023/08/01 14:27:14;;;;;;;4.22;1.38;;;;;;;20.85;56.40;99995.22;5157571;27;20365;-81
2023/08/01 14:29:40;;;;;;;5.88;1.77;;;;;;;20.87;57.95;99998.47;5157032;27;20031;-81
2023/08/01 14:32:06;;;;;;;4.97;1.88;;;;;;;20.94;57.13;99996.09;5156622;27;20465;-76
2023/08/01 14:34:31;;;;;;;3.78;1.45;;;;;;;21.06;56.82;99996.28;5156548;27;20031;-74
2023/08/01 14:36:56;;;;;;;5.25;1.38;;;;;;;21.16;55.74;100002.66;5157019;27;20171;-76
2023/08/01 14:39:22;;;;;;;2.90;1.30;;;;;;;21.29;55.18;100001.72;5156629;27;20027;-77
2023/08/01 14:41:47;;;;;;;3.85;1.35;;;;;;;21.40;53.92;100000.31;5156561;27;20423;-77
2023/08/01 14:44:12;;;;;;;3.97;1.40;;;;;;;21.38;52.93;99996.25;5132996;27;20106;-73
2023/08/01 14:46:38;;;;;;;3.80;1.40;;;;;;;21.29;53.39;100003.66;5141132;27;20023;-73
2023/08/01 14:49:03;;;;;;;4.20;1.35;;;;;;;21.33;54.30;100015.66;5135625;27;20029;-73
2023/08/01 14:51:29;;;;;;;3.67;1.40;;;;;;;21.40;54.92;100003.06;5124168;27;20079;-71
2023/08/01 14:53:54;;;;;;;3.13;1.35;;;;;;;21.58;53.38;100005.91;5146460;27;20083;-75
2023/08/01 14:56:19;;;;;;;5.43;1.60;;;;;;;21.62;54.43;99995.88;5156432;27;20031;-74
2023/08/01 14:58:45;;;;;;;4.00;1.40;;;;;;;21.66;52.77;99999.59;5143702;27;20051;-73
2023/08/01 15:01:17;;;;;;;5.07;1.45;;;;;;;21.76;55.21;100006.75;5129500;27;20379;-73
2023/08/01 15:03:44;;;;;;;4.05;1.42;;;;;;;21.53;52.62;100006.03;5119274;27;20031;-74
2023/08/01 15:06:09;;;;;;;7.53;1.65;;;;;;;21.50;53.21;100009.44;5124754;27;20031;-79
2023/08/01 15:08:35;;;;;;;5.05;1.65;;;;;;;21.67;53.12;100008.69;5120761;27;20027;-73
2023/08/01 15:11:07;;;;;;;4.70;1.55;;;;;;;21.98;52.01;100005.00;5125010;27;20032;-74
2023/08/01 15:13:33;;;;;;;5.38;1.30;;;;;;;22.28;52.07;100005.97;5120416;27;20502;-74
2023/08/01 15:15:59;;;;;;;5.45;1.80;;;;;;;22.96;51.86;100021.97;5126694;27;20054;-74
2023/08/01 15:18:25;;;;;;;5.80;1.92;;;;;;;23.37;48.91;100023.34;5124498;27;20062;-77
2023/08/01 15:20:52;;;;;;;2.88;1.30;;;;;;;23.15;46.94;100027.94;5127632;27;20111;-76
2023/08/01 15:23:17;;;;;;;7.63;1.90;;;;;;;23.10;49.16;100014.34;5127152;27;20039;-81
2023/08/01 15:25:55;;;;;;;7.25;1.75;;;;;;;23.45;48.80;100018.91;5123134;27;20106;-77
2023/08/01 15:28:21;;;;;;;6.13;1.90;;;;;;;23.84;48.57;100009.41;5130830;27;20038;-77
2023/08/01 15:30:47;;;;;;;7.47;1.90;;;;;;;23.78;47.75;100019.03;5124879;27;20114;-74
2023/08/01 15:33:13;;;;;;;4.72;1.65;;;;;;;24.12;47.73;100019.16;5124312;27;20102;-76
2023/08/01 15:35:38;;;;;;;5.55;1.65;;;;;;;24.35;47.33;100023.22;5115851;27;20038;-76
2023/08/01 15:38:04;;;;;;;3.92;1.50;;;;;;;24.12;46.93;100019.97;5114378;28;20031;-73
2023/08/01 15:40:29;;;;;;;7.40;1.75;;;;;;;23.68;47.47;100023.00;5129146;27;20381;-77
2023/08/01 15:42:54;;;;;;;5.38;1.80;;;;;;;23.23;48.27;100011.69;5125737;27;20030;-73
2023/08/01 15:45:20;;;;;;;4.63;1.67;;;;;;;23.00;49.86;100026.50;5116230;27;20183;-74
2023/08/01 15:47:45;;;;;;;5.18;1.80;;;;;;;23.01;49.87;100014.31;5129033;27;20031;-74
2023/08/01 15:50:10;;;;;;;5.32;1.60;;;;;;;23.29;47.50;100015.88;5116533;27;20054;-75
2023/08/01 15:52:35;;;;;;;3.47;1.30;;;;;;;23.54;45.11;100017.72;5122086;27;20058;-74
2023/08/01 15:55:01;;;;;;;3.45;1.50;;;;;;;23.54;46.71;100026.00;5133007;27;20369;-84
2023/08/01 15:57:26;;;;;;;4.40;1.48;;;;;;;23.58;46.02;100028.09;5132211;27;20023;-79
2023/08/01 15:59:51;;;;;;;3.25;1.58;;;;;;;23.52;47.42;100028.28;5127959;27;20541;-77
2023/08/01 16:02:17;;;;;;;3.83;1.38;;;;;;;23.08;48.26;100029.56;5125290;27;20046;-74
2023/08/01 16:04:42;;;;;;;6.53;1.63;;;;;;;22.60;50.95;100025.94;5095059;28;20027;-74
2023/08/01 16:07:07;;;;;;;5.97;1.90;;;;;;;22.34;53.27;100036.97;5120477;27;20027;-78
2023/08/01 16:09:33;;;;;;;8.27;1.92;;;;;;;22.58;53.17;100030.97;5114394;27;20023;-76
2023/08/01 16:11:58;;;;;;;7.78;2.17;;;;;;;22.80;52.54;100032.72;5133854;27;20344;-78
2023/08/01 16:14:23;;;;;;;3.58;1.67;;;;;;;22.59;53.14;100029.84;5134211;27;20029;-74
